createdAt,value
2022-11-21T00:00:12.595Z,21.18
2022-11-21T00:02:43.210Z,21.17
2022-11-21T00:05:13.915Z,21.15
2022-11-21T00:07:45.993Z,21.11
2022-11-21T00:10:17.147Z,21.06
2022-11-21T00:12:47.826Z,21.05
2022-11-21T00:15:18.632Z,21.08
2022-11-21T00:17:49.187Z,21.10
2022-11-21T00:20:21.579Z,21.09
2022-11-21T00:22:52.630Z,21.05
2022-11-21T00:25:23.884Z,21.01
2022-11-21T00:27:55.237Z,20.98
2022-11-21T00:30:26.298Z,20.89
2022-11-21T00:32:57.016Z,20.94
2022-11-21T00:35:27.754Z,20.94
2022-11-21T00:37:58.388Z,20.92
2022-11-21T00:40:30.112Z,20.91
2022-11-21T00:43:00.700Z,20.88
2022-11-21T00:45:31.298Z,20.84
2022-11-21T00:48:01.914Z,20.84
2022-11-21T00:50:32.534Z,20.86
2022-11-21T00:53:03.223Z,20.84
2022-11-21T00:55:33.837Z,20.79
2022-11-21T00:58:04.598Z,20.76
2022-11-21T01:00:35.287Z,20.74
2022-11-21T01:03:06.076Z,20.68
2022-11-21T01:05:37.117Z,20.62
2022-11-21T01:08:07.935Z,20.61
2022-11-21T01:10:38.865Z,20.58
2022-11-21T01:13:09.541Z,20.57
2022-11-21T01:15:40.143Z,20.55
2022-11-21T01:18:11.421Z,20.52
2022-11-21T01:20:43.057Z,20.51
2022-11-21T01:23:13.663Z,20.47
2022-11-21T01:25:44.452Z,20.44
2022-11-21T01:28:15.159Z,20.42
2022-11-21T01:30:45.899Z,20.40
2022-11-21T01:33:16.618Z,20.37
2022-11-21T01:35:47.297Z,20.34
2022-11-21T01:38:18.040Z,20.27
2022-11-21T01:40:48.872Z,20.23
2022-11-21T01:43:19.719Z,20.25
2022-11-21T01:46:01.863Z,20.30
2022-11-21T01:48:46.386Z,20.34
2022-11-21T01:51:23.428Z,20.37
2022-11-21T01:53:58.278Z,20.38
2022-11-21T01:56:30.822Z,20.36
2022-11-21T01:59:04.864Z,20.29
2022-11-21T02:01:38.387Z,20.24
2022-11-21T02:04:10.584Z,20.24
2022-11-21T02:06:41.676Z,20.32
2022-11-21T02:09:13.109Z,20.31
2022-11-21T02:11:48.928Z,20.31
2022-11-21T02:14:19.751Z,20.35
2022-11-21T02:16:50.953Z,20.38
2022-11-21T02:19:30.548Z,20.40
2022-11-21T02:22:08.407Z,20.38
2022-11-21T02:24:46.889Z,20.36
2022-11-21T02:27:18.895Z,20.33
2022-11-21T02:29:49.932Z,20.33
2022-11-21T02:32:27.227Z,20.33
2022-11-21T02:34:57.877Z,20.32
2022-11-21T02:37:29.190Z,20.33
2022-11-21T02:40:02.629Z,20.32
2022-11-21T02:42:37.828Z,20.29
2022-11-21T02:45:15.563Z,20.25
2022-11-21T02:47:46.888Z,20.24
2022-11-21T02:50:21.103Z,20.23
2022-11-21T02:52:51.701Z,20.19
2022-11-21T02:55:22.404Z,20.17
2022-11-21T02:57:53.527Z,20.13
2022-11-21T03:00:24.960Z,20.08
2022-11-21T03:02:56.109Z,20.06
2022-11-21T03:05:26.877Z,20.03
2022-11-21T03:07:57.589Z,20.01
2022-11-21T03:10:28.509Z,20.02
2022-11-21T03:13:01.874Z,19.98
2022-11-21T03:15:34.227Z,19.94
2022-11-21T03:18:05.443Z,19.93
2022-11-21T03:20:37.048Z,19.95
2022-11-21T03:23:07.693Z,19.96
2022-11-21T03:25:38.325Z,19.87
2022-11-21T03:28:08.929Z,19.86
2022-11-21T03:30:39.694Z,19.86
2022-11-21T03:33:10.273Z,19.86
2022-11-21T03:35:40.861Z,19.81
2022-11-21T03:38:11.451Z,19.78
2022-11-21T03:40:42.273Z,19.77
2022-11-21T03:43:13.380Z,19.75
2022-11-21T03:45:46.986Z,19.73
2022-11-21T03:48:17.719Z,19.75
2022-11-21T03:50:48.355Z,19.77
2022-11-21T03:53:18.990Z,19.78
2022-11-21T03:55:49.730Z,19.77
2022-11-21T03:58:20.341Z,19.75
2022-11-21T04:00:52.005Z,19.73
2022-11-21T04:03:22.591Z,19.71
2022-11-21T04:05:53.586Z,19.67
2022-11-21T04:08:24.545Z,19.66
2022-11-21T04:10:56.396Z,19.63
2022-11-21T04:13:27.351Z,19.65
2022-11-21T04:15:58.414Z,19.67
2022-11-21T04:18:29.706Z,19.69
2022-11-21T04:21:01.495Z,19.68
2022-11-21T04:23:32.291Z,19.71
2022-11-21T04:26:03.521Z,19.71
2022-11-21T04:28:34.305Z,19.70
2022-11-21T04:31:11.289Z,19.69
2022-11-21T04:33:42.287Z,19.65
2022-11-21T04:36:13.310Z,19.68
2022-11-21T04:38:43.970Z,19.64
2022-11-21T04:41:15.195Z,19.65
2022-11-21T04:43:46.118Z,19.59
2022-11-21T04:46:17.072Z,19.62
2022-11-21T04:48:47.709Z,19.59
2022-11-21T04:51:18.521Z,19.51
2022-11-21T04:53:49.184Z,19.47
2022-11-21T04:56:19.818Z,19.42
2022-11-21T04:58:52.807Z,19.39
2022-11-21T05:01:23.488Z,19.34
2022-11-21T05:03:55.001Z,19.28
2022-11-21T05:06:25.666Z,19.25
2022-11-21T05:08:56.459Z,19.21
2022-11-21T05:11:56.377Z,19.16
2022-11-21T05:14:27.476Z,19.11
2022-11-21T05:16:58.347Z,19.13
2022-11-21T05:19:29.001Z,19.12
2022-11-21T05:21:59.924Z,19.12
2022-11-21T05:24:30.724Z,19.11
2022-11-21T05:27:01.731Z,19.11
2022-11-21T05:29:33.884Z,19.13
2022-11-21T05:32:04.595Z,19.15
2022-11-21T05:34:35.380Z,19.15
2022-11-21T05:37:06.745Z,19.15
2022-11-21T05:39:37.374Z,19.13
2022-11-21T05:42:08.300Z,19.08
2022-11-21T05:44:38.865Z,19.04
2022-11-21T05:47:09.883Z,19.00
2022-11-21T05:49:40.501Z,18.96
2022-11-21T05:52:11.256Z,18.92
2022-11-21T05:54:45.973Z,18.86
2022-11-21T05:57:16.925Z,18.86
2022-11-21T05:59:47.661Z,18.84
2022-11-21T06:02:38.312Z,18.82
2022-11-21T06:05:10.399Z,18.80
2022-11-21T06:07:41.473Z,18.78
2022-11-21T06:10:12.471Z,18.79
2022-11-21T06:12:43.171Z,18.81
2022-11-21T06:15:14.298Z,18.84
2022-11-21T06:17:45.211Z,18.88
2022-11-21T06:20:16.486Z,18.92
2022-11-21T06:22:47.258Z,18.96
2022-11-21T06:25:18.175Z,19.04
2022-11-21T06:27:48.850Z,19.11
2022-11-21T06:30:22.383Z,19.20
2022-11-21T06:32:53.313Z,19.27
2022-11-21T06:35:24.090Z,19.34
2022-11-21T06:37:54.925Z,19.41
2022-11-21T06:40:25.562Z,19.46
2022-11-21T06:42:57.731Z,19.52
2022-11-21T06:45:28.580Z,19.56
2022-11-21T06:48:02.281Z,19.60
2022-11-21T06:50:33.630Z,19.65
2022-11-21T06:53:04.471Z,19.71
2022-11-21T06:55:35.181Z,19.74
2022-11-21T06:58:05.889Z,19.78
2022-11-21T07:00:36.786Z,19.82
2022-11-21T07:03:07.792Z,19.86
2022-11-21T07:05:38.493Z,19.90
2022-11-21T07:08:13.292Z,19.94
2022-11-21T07:11:03.526Z,19.97
2022-11-21T07:13:35.498Z,20.01
2022-11-21T07:16:08.548Z,20.04
2022-11-21T07:18:39.646Z,20.08
2022-11-21T07:21:10.777Z,20.11
2022-11-21T07:23:41.657Z,20.16
2022-11-21T07:26:13.402Z,20.18
2022-11-21T07:28:44.885Z,20.22
2022-11-21T07:31:15.507Z,20.24
2022-11-21T07:33:46.951Z,20.28
2022-11-21T07:36:17.820Z,20.31
2022-11-21T07:38:50.297Z,20.33
2022-11-21T07:41:21.243Z,20.33
2022-11-21T07:43:52.139Z,20.32
2022-11-21T07:46:22.914Z,20.38
2022-11-21T07:48:53.526Z,20.40
2022-11-21T07:51:24.250Z,20.40
2022-11-21T07:53:54.900Z,20.41
2022-11-21T07:56:26.719Z,20.41
2022-11-21T07:58:57.625Z,20.41
2022-11-21T08:01:28.590Z,20.41
2022-11-21T08:03:59.731Z,20.41
2022-11-21T08:06:30.572Z,20.42
2022-11-21T08:09:01.295Z,20.42
2022-11-21T08:11:32.540Z,20.43
2022-11-21T08:14:03.411Z,20.43
2022-11-21T08:16:34.129Z,20.43
2022-11-21T08:19:05.723Z,20.45
2022-11-21T08:21:36.393Z,20.45
2022-11-21T08:24:13.704Z,20.44
2022-11-21T08:26:44.856Z,20.43
2022-11-21T08:29:16.608Z,20.43
2022-11-21T08:31:47.554Z,20.42
2022-11-21T08:34:18.228Z,20.39
2022-11-21T08:36:48.886Z,20.40
2022-11-21T08:39:19.516Z,20.38
2022-11-21T08:42:05.588Z,20.38
2022-11-21T08:44:36.838Z,20.35
2022-11-21T08:47:07.704Z,20.34
2022-11-21T08:49:38.376Z,20.36
2022-11-21T08:52:09.231Z,20.38
2022-11-21T08:54:39.955Z,20.42
2022-11-21T08:57:10.898Z,20.45
2022-11-21T08:59:41.636Z,20.47
2022-11-21T09:02:13.677Z,20.50
2022-11-21T09:04:44.283Z,20.52
2022-11-21T09:07:14.949Z,20.53
2022-11-21T09:09:45.624Z,20.53
2022-11-21T09:12:16.276Z,20.54
2022-11-21T09:15:09.626Z,20.54
2022-11-21T09:17:54.180Z,20.54
2022-11-21T09:20:25.317Z,20.53
2022-11-21T09:22:56.006Z,20.53
2022-11-21T09:25:26.774Z,20.54
2022-11-21T09:28:02.988Z,20.54
2022-11-21T09:30:33.664Z,20.55
2022-11-21T09:33:05.157Z,20.57
2022-11-21T09:35:36.157Z,20.58
2022-11-21T09:38:07.502Z,20.57
2022-11-21T09:40:43.127Z,20.58
2022-11-21T09:43:43.810Z,20.60
2022-11-21T09:46:18.212Z,20.58
2022-11-21T09:48:56.139Z,20.58
2022-11-21T09:51:28.998Z,20.58
2022-11-21T09:54:03.320Z,20.54
2022-11-21T09:56:38.184Z,20.57
2022-11-21T09:59:26.344Z,20.57
2022-11-21T10:01:57.028Z,20.57
2022-11-21T10:04:29.199Z,20.57
2022-11-21T10:07:06.770Z,20.58
2022-11-21T10:09:58.540Z,20.57
2022-11-21T10:12:38.259Z,20.56
2022-11-21T10:15:25.439Z,20.54
2022-11-21T10:18:10.171Z,20.55
2022-11-21T10:20:55.755Z,20.54
2022-11-21T10:23:44.921Z,20.53
2022-11-21T10:26:23.898Z,20.54
2022-11-21T10:29:01.920Z,20.54
2022-11-21T10:31:37.838Z,20.56
2022-11-21T10:34:15.528Z,20.56
2022-11-21T10:36:50.896Z,20.56
2022-11-21T10:39:35.527Z,20.56
2022-11-21T10:42:23.122Z,20.56
2022-11-21T10:45:13.325Z,20.56
2022-11-21T10:47:44.550Z,20.56
2022-11-21T10:50:27.422Z,20.58
2022-11-21T10:53:27.814Z,20.59
2022-11-21T10:56:07.206Z,20.59
2022-11-21T10:58:44.063Z,20.59
2022-11-21T11:01:30.015Z,20.59
2022-11-21T11:04:44.456Z,20.60
2022-11-21T11:07:27.018Z,20.59
2022-11-21T11:10:26.939Z,20.61
2022-11-21T11:16:17.859Z,20.62
2022-11-21T11:18:56.814Z,20.64
2022-11-21T11:21:29.224Z,20.65
2022-11-21T11:24:24.646Z,20.66
2022-11-21T11:27:00.371Z,20.66
2022-11-21T11:29:32.694Z,20.67
2022-11-21T11:32:10.874Z,20.69
2022-11-21T11:34:49.714Z,20.69
2022-11-21T11:37:42.185Z,20.70
2022-11-21T11:40:26.993Z,20.71
2022-11-21T11:43:38.272Z,20.71
2022-11-21T11:46:49.788Z,20.72
2022-11-21T11:49:27.034Z,20.74
2022-11-21T11:52:02.300Z,20.76
2022-11-21T11:54:44.144Z,20.76
2022-11-21T11:57:15.754Z,20.77
2022-11-21T11:59:52.288Z,20.78
2022-11-21T12:02:26.660Z,20.78
2022-11-21T12:05:04.405Z,20.78
2022-11-21T12:08:38.949Z,20.78
2022-11-21T12:10:35.331Z,20.79
2022-11-21T12:13:13.696Z,20.82
2022-11-21T12:15:52.859Z,20.84
2022-11-21T12:18:33.019Z,20.85
2022-11-21T12:21:10.372Z,20.86
2022-11-21T12:23:47.224Z,20.88
2022-11-21T12:26:41.484Z,20.88
2022-11-21T12:29:23.584Z,20.89
2022-11-21T12:32:05.844Z,20.89
2022-11-21T12:34:58.172Z,20.89
2022-11-21T12:37:40.033Z,20.91
2022-11-21T12:40:29.389Z,20.91
2022-11-21T12:43:16.996Z,20.91
2022-11-21T12:45:52.267Z,20.91
2022-11-21T12:48:49.308Z,20.92
2022-11-21T12:52:03.713Z,20.91
2022-11-21T12:54:58.680Z,20.92
2022-11-21T12:57:41.088Z,20.92
2022-11-21T13:00:20.270Z,20.92
2022-11-21T13:03:17.469Z,20.93
2022-11-21T13:05:52.272Z,20.92
2022-11-21T13:08:27.661Z,20.93
2022-11-21T13:11:18.660Z,20.93
2022-11-21T13:13:52.970Z,20.92
2022-11-21T13:16:37.755Z,20.93
2022-11-21T13:19:24.459Z,20.92
2022-11-21T13:21:56.149Z,20.92
2022-11-21T13:25:00.202Z,20.92
2022-11-21T13:27:38.209Z,20.92
2022-11-21T13:30:26.183Z,20.91
2022-11-21T13:32:57.481Z,20.90
2022-11-21T13:36:04.054Z,20.90
2022-11-21T13:38:55.542Z,20.90
2022-11-21T13:42:20.468Z,20.89
2022-11-21T13:44:52.270Z,20.88
2022-11-21T13:47:59.820Z,20.87
2022-11-21T13:50:53.599Z,20.86
2022-11-21T13:53:57.571Z,20.84
2022-11-21T13:56:37.106Z,20.83
2022-11-21T13:59:31.418Z,20.83
2022-11-21T14:02:40.354Z,20.83
2022-11-21T14:05:44.106Z,20.83
2022-11-21T14:08:21.898Z,20.83
2022-11-21T14:10:54.812Z,20.84
2022-11-21T14:13:29.972Z,20.85
2022-11-21T14:16:23.808Z,20.85
2022-11-21T14:18:56.285Z,20.85
2022-11-21T14:21:29.783Z,20.85
2022-11-21T14:24:04.333Z,20.86
2022-11-21T14:26:40.600Z,20.85
2022-11-21T14:29:27.937Z,20.84
2022-11-21T14:31:58.922Z,20.84
2022-11-21T14:34:31.920Z,20.82
2022-11-21T14:37:06.277Z,20.81
2022-11-21T14:39:44.589Z,20.80
2022-11-21T14:42:17.930Z,20.80
2022-11-21T14:44:48.758Z,20.81
2022-11-21T14:47:26.772Z,20.80
2022-11-21T14:50:06.968Z,20.80
2022-11-21T14:52:38.281Z,20.81
2022-11-21T14:55:32.460Z,20.81
2022-11-21T14:58:05.314Z,20.80
2022-11-21T15:00:58.729Z,20.81
2022-11-21T15:03:26.822Z,20.80
2022-11-21T15:06:07.521Z,20.80
2022-11-21T15:11:38.616Z,20.79
2022-11-21T15:14:16.451Z,20.81
2022-11-21T15:16:50.835Z,20.85
2022-11-21T15:19:22.185Z,20.84
2022-11-21T15:21:54.312Z,20.83
2022-11-21T15:24:37.789Z,20.83
2022-11-21T15:27:34.938Z,20.81
2022-11-21T15:30:23.089Z,20.80
2022-11-21T15:33:05.470Z,20.79
2022-11-21T15:35:51.501Z,20.78
2022-11-21T15:38:26.278Z,20.78
2022-11-21T15:41:27.673Z,20.75
2022-11-21T15:44:16.150Z,20.78
2022-11-21T15:49:37.690Z,20.89
2022-11-21T15:52:14.466Z,20.98
2022-11-21T15:54:45.192Z,21.02
2022-11-21T15:57:15.985Z,20.86
2022-11-21T15:57:17.441Z,21.02
2022-11-21T15:59:49.665Z,21.04
2022-11-21T16:02:20.944Z,21.10
2022-11-21T16:04:53.498Z,21.17
2022-11-21T16:07:24.401Z,21.20
2022-11-21T16:09:55.961Z,21.23
2022-11-21T16:12:26.713Z,21.27
2022-11-21T16:14:57.659Z,21.32
2022-11-21T16:17:28.490Z,21.32
2022-11-21T16:19:59.230Z,21.28
2022-11-21T16:22:29.982Z,21.28
2022-11-21T16:25:02.139Z,21.27
2022-11-21T16:27:34.499Z,21.27
2022-11-21T16:30:06.838Z,21.24
2022-11-21T16:32:37.621Z,21.21
2022-11-21T16:35:10.023Z,21.20
2022-11-21T16:37:40.702Z,21.21
2022-11-21T16:40:13.368Z,21.22
2022-11-21T16:42:44.164Z,21.20
2022-11-21T16:45:15.220Z,21.22
2022-11-21T16:47:48.836Z,21.30
2022-11-21T16:50:20.467Z,21.37
2022-11-21T16:52:51.305Z,21.41
2022-11-21T16:55:22.250Z,21.46
2022-11-21T16:57:53.709Z,21.47
2022-11-21T17:00:24.992Z,21.47
2022-11-21T17:02:57.228Z,21.46
2022-11-21T17:05:28.210Z,21.38
2022-11-21T17:08:00.049Z,21.38
2022-11-21T17:10:33.931Z,21.36
2022-11-21T17:13:04.947Z,21.32
2022-11-21T17:15:35.832Z,21.27
2022-11-21T17:18:07.009Z,21.23
2022-11-21T17:20:37.914Z,21.22
2022-11-21T17:23:08.655Z,21.20
2022-11-21T17:25:39.606Z,21.19
2022-11-21T17:28:10.531Z,21.18
2022-11-21T17:30:44.263Z,21.20
2022-11-21T17:33:13.667Z,21.20
2022-11-21T17:35:44.512Z,21.16
2022-11-21T17:38:15.293Z,21.16
2022-11-21T17:40:46.277Z,21.17
2022-11-21T17:43:17.680Z,21.15
2022-11-21T17:45:48.727Z,21.18
2022-11-21T17:48:19.717Z,21.17
2022-11-21T17:50:59.033Z,21.15
2022-11-21T17:53:31.151Z,21.15
2022-11-21T17:56:03.491Z,21.15
2022-11-21T17:58:35.541Z,21.14
2022-11-21T18:01:08.300Z,21.15
2022-11-21T18:03:39.141Z,21.15
2022-11-21T18:06:12.751Z,21.20
2022-11-21T18:08:46.333Z,21.22
2022-11-21T18:11:19.782Z,21.22
2022-11-21T18:13:51.515Z,21.22
2022-11-21T18:16:24.139Z,21.21
2022-11-21T18:18:55.517Z,21.23
2022-11-21T18:21:28.608Z,21.24
2022-11-21T18:24:00.568Z,21.25
2022-11-21T18:26:33.035Z,21.26
2022-11-21T18:29:35.069Z,21.28
2022-11-21T18:31:57.734Z,21.27
2022-11-21T18:34:28.664Z,21.29
2022-11-21T18:36:59.411Z,21.29
2022-11-21T18:39:30.472Z,21.26
2022-11-21T18:42:01.565Z,21.32
2022-11-21T18:44:32.351Z,21.33
2022-11-21T18:47:19.298Z,21.34
2022-11-21T18:49:51.010Z,21.34
2022-11-21T18:52:24.892Z,21.36
2022-11-21T18:54:55.962Z,21.39
2022-11-21T18:57:27.086Z,21.40
2022-11-21T18:59:58.236Z,21.41
2022-11-21T19:02:29.303Z,21.40
2022-11-21T19:05:00.389Z,21.39
2022-11-21T19:07:31.379Z,21.39
2022-11-21T19:10:35.178Z,21.41
2022-11-21T19:12:53.096Z,21.43
2022-11-21T19:15:24.249Z,21.45
2022-11-21T19:17:55.114Z,21.45
2022-11-21T19:20:26.103Z,21.47
2022-11-21T19:22:57.002Z,21.48
2022-11-21T19:25:27.873Z,21.49
2022-11-21T19:27:59.298Z,21.49
2022-11-21T19:30:31.047Z,21.49
2022-11-21T19:33:02.124Z,21.47
2022-11-21T19:35:33.047Z,21.46
2022-11-21T19:38:04.001Z,21.46
2022-11-21T19:40:56.012Z,21.47
2022-11-21T19:43:27.160Z,21.49
2022-11-21T19:45:58.436Z,21.48
2022-11-21T19:48:29.943Z,21.48
2022-11-21T19:51:02.364Z,21.46
2022-11-21T19:53:36.761Z,21.48
2022-11-21T19:56:16.287Z,21.48
2022-11-21T19:58:47.938Z,21.48
2022-11-21T20:01:20.987Z,21.48
2022-11-21T20:03:56.976Z,21.47
2022-11-21T20:06:29.355Z,21.46
2022-11-21T20:09:01.851Z,21.47
2022-11-21T20:11:33.918Z,21.49
2022-11-21T20:14:05.072Z,21.50
2022-11-21T20:16:38.202Z,21.50
2022-11-21T20:19:11.464Z,21.50
2022-11-21T20:21:42.519Z,21.50
2022-11-21T20:24:14.343Z,21.51
2022-11-21T20:26:46.152Z,21.51
2022-11-21T20:29:17.238Z,21.49
2022-11-21T20:31:49.379Z,21.46
2022-11-21T20:34:20.393Z,21.43
2022-11-21T20:36:51.523Z,21.41
2022-11-21T20:39:22.588Z,21.39
2022-11-21T20:41:53.535Z,21.38
2022-11-21T20:47:16.874Z,21.35
2022-11-21T20:49:47.747Z,21.34
2022-11-21T20:55:10.856Z,21.29
2022-11-21T20:57:42.176Z,21.26
2022-11-21T21:00:16.115Z,21.21
2022-11-21T21:02:47.434Z,21.22
2022-11-21T21:05:18.479Z,21.22
2022-11-21T21:07:49.364Z,21.24
2022-11-21T21:10:23.346Z,21.22
2022-11-21T21:12:54.368Z,21.21
2022-11-21T21:15:25.253Z,21.21
2022-11-21T21:17:56.186Z,21.21
2022-11-21T21:20:27.182Z,21.19
2022-11-21T21:22:58.126Z,21.15
2022-11-21T21:25:29.049Z,21.12
2022-11-21T21:28:00.026Z,21.11
2022-11-21T21:30:31.275Z,21.08
2022-11-21T21:33:02.425Z,21.04
2022-11-21T21:35:33.342Z,21.01
2022-11-21T21:38:08.828Z,20.96
2022-11-21T21:40:39.958Z,20.91
2022-11-21T21:43:10.889Z,20.90
2022-11-21T21:45:41.637Z,20.87
2022-11-21T21:48:12.393Z,20.83
2022-11-21T21:50:43.327Z,20.76
2022-11-21T21:53:14.269Z,20.77
2022-11-21T21:55:45.202Z,20.74
2022-11-21T21:58:15.979Z,20.70
2022-11-21T22:00:46.791Z,20.65
2022-11-21T22:03:17.520Z,20.61
2022-11-21T22:05:48.269Z,20.59
2022-11-21T22:08:19.000Z,20.58
2022-11-21T22:10:49.700Z,20.56
2022-11-21T22:13:20.357Z,20.53
2022-11-21T22:15:55.707Z,20.49
2022-11-21T22:18:26.800Z,20.48
2022-11-21T22:20:58.006Z,20.44
2022-11-21T22:23:30.615Z,20.40
2022-11-21T22:26:01.323Z,20.38
2022-11-21T22:28:32.027Z,20.36
2022-11-21T22:31:02.700Z,20.36
2022-11-21T22:33:33.742Z,20.33
2022-11-21T22:36:06.251Z,20.32
2022-11-21T22:38:37.803Z,20.29
2022-11-21T22:41:09.929Z,20.27
2022-11-21T22:43:40.759Z,20.24
2022-11-21T22:46:14.417Z,20.24
2022-11-21T22:48:45.202Z,20.27
2022-11-21T22:51:18.550Z,20.26
2022-11-21T22:53:49.743Z,20.24
2022-11-21T22:56:22.729Z,20.24
2022-11-21T22:58:53.820Z,20.23
2022-11-21T23:01:26.313Z,20.22
2022-11-21T23:03:57.949Z,20.22
2022-11-21T23:06:29.667Z,20.21
2022-11-21T23:09:00.340Z,20.19
2022-11-21T23:11:39.389Z,20.16
2022-11-21T23:14:11.502Z,20.13
2022-11-21T23:16:42.583Z,20.10
2022-11-21T23:19:13.264Z,20.08
2022-11-21T23:21:43.956Z,20.09
2022-11-21T23:24:15.105Z,20.10
2022-11-21T23:26:47.683Z,20.06
2022-11-21T23:29:18.307Z,20.05
2022-11-21T23:31:48.933Z,20.04
2022-11-21T23:34:19.674Z,20.02
2022-11-21T23:36:50.635Z,19.97
2022-11-21T23:39:21.374Z,19.94
2022-11-21T23:41:52.071Z,19.93
2022-11-21T23:44:22.748Z,19.91
2022-11-21T23:46:53.843Z,19.91
2022-11-21T23:49:24.531Z,19.87
2022-11-21T23:51:55.132Z,19.85
2022-11-21T23:54:25.824Z,19.86
2022-11-21T23:56:56.454Z,19.83
2022-11-21T23:59:27.489Z,19.84
